createdAt,value
2018-04-26T00:01:51.006Z,5.83
2018-04-26T00:04:18.539Z,5.67
2018-04-26T00:06:46.060Z,5.90
2018-04-26T00:09:13.574Z,5.97
2018-04-26T00:11:41.137Z,6.47
2018-04-26T00:14:08.640Z,6.73
2018-04-26T00:16:36.189Z,6.10
2018-04-26T00:19:04.500Z,6.10
2018-04-26T00:21:32.035Z,5.43
2018-04-26T00:24:00.313Z,5.60
2018-04-26T00:26:27.834Z,5.50
2018-04-26T00:28:55.369Z,5.93
2018-04-26T00:31:22.856Z,6.47
2018-04-26T00:33:50.401Z,6.10
2018-04-26T00:36:18.020Z,5.97
2018-04-26T00:38:45.553Z,6.40
2018-04-26T00:41:13.847Z,5.67
2018-04-26T00:43:41.396Z,6.10
2018-04-26T00:46:09.686Z,5.83
2018-04-26T00:48:37.203Z,6.80
2018-04-26T00:51:05.542Z,6.50
2018-04-26T00:53:33.074Z,5.40
2018-04-26T00:56:00.611Z,5.90
2018-04-26T00:58:28.943Z,7.30
2018-04-26T01:00:56.465Z,6.60
2018-04-26T01:03:24.746Z,6.07
2018-04-26T01:05:52.273Z,6.40
2018-04-26T01:08:19.825Z,6.27
2018-04-26T01:10:47.333Z,5.90
2018-04-26T01:13:14.840Z,5.70
2018-04-26T01:15:42.357Z,6.30
2018-04-26T01:18:09.876Z,6.20
2018-04-26T01:20:37.425Z,6.37
2018-04-26T01:23:04.953Z,5.90
2018-04-26T01:25:32.480Z,5.37
2018-04-26T01:28:00.002Z,5.37
2018-04-26T01:30:27.545Z,5.43
2018-04-26T01:32:55.095Z,5.33
2018-04-26T01:35:22.621Z,5.70
2018-04-26T01:37:50.142Z,5.03
2018-04-26T01:40:17.676Z,5.67
2018-04-26T01:42:45.223Z,5.13
2018-04-26T01:45:12.784Z,4.60
2018-04-26T01:47:40.294Z,4.83
2018-04-26T01:50:08.604Z,5.37
2018-04-26T01:52:36.119Z,5.40
2018-04-26T01:55:04.521Z,5.10
2018-04-26T01:57:32.787Z,5.00
2018-04-26T02:00:01.110Z,5.53
2018-04-26T02:02:28.636Z,5.20
2018-04-26T02:04:56.154Z,5.30
2018-04-26T02:07:23.708Z,5.73
2018-04-26T02:09:51.248Z,5.47
2018-04-26T02:12:18.770Z,5.60
2018-04-26T02:14:46.292Z,5.53
2018-04-26T02:17:13.796Z,5.03
2018-04-26T02:19:41.425Z,4.87
2018-04-26T02:22:08.906Z,6.10
2018-04-26T02:24:36.416Z,4.77
2018-04-26T02:27:03.970Z,4.90
2018-04-26T02:29:31.508Z,5.13
2018-04-26T02:31:59.100Z,5.10
2018-04-26T02:34:26.645Z,5.37
2018-04-26T02:36:54.137Z,5.07
2018-04-26T02:39:21.682Z,5.00
2018-04-26T02:41:49.203Z,5.07
2018-04-26T02:44:16.735Z,4.60
2018-04-26T02:46:44.278Z,5.07
2018-04-26T02:49:11.803Z,4.53
2018-04-26T02:51:39.298Z,4.50
2018-04-26T02:54:06.837Z,4.97
2018-04-26T02:56:34.349Z,5.23
2018-04-26T02:59:01.901Z,4.33
2018-04-26T03:01:29.431Z,4.00
2018-04-26T03:03:56.965Z,4.10
2018-04-26T03:06:24.462Z,4.00
2018-04-26T03:08:52.015Z,4.10
2018-04-26T03:11:19.510Z,4.53
2018-04-26T03:13:47.020Z,4.23
2018-04-26T03:16:15.332Z,4.73
2018-04-26T03:18:42.835Z,4.30
2018-04-26T03:21:10.361Z,4.10
2018-04-26T03:23:37.897Z,4.57
2018-04-26T03:26:05.418Z,4.33
2018-04-26T03:28:32.972Z,4.00
2018-04-26T03:31:00.533Z,4.53
2018-04-26T03:33:28.242Z,4.40
2018-04-26T03:35:55.793Z,3.63
2018-04-26T03:38:23.293Z,3.97
2018-04-26T03:40:50.805Z,3.87
2018-04-26T03:43:18.330Z,3.90
2018-04-26T03:45:45.865Z,4.37
2018-04-26T03:48:13.396Z,3.97
2018-04-26T03:50:40.911Z,3.97
2018-04-26T03:53:08.458Z,3.90
2018-04-26T03:55:35.953Z,4.00
2018-04-26T03:58:04.269Z,3.50
2018-04-26T04:00:43.575Z,4.13
2018-04-26T04:03:23.022Z,3.00
2018-04-26T04:08:53.046Z,3.33
2018-04-26T04:11:20.579Z,4.10
2018-04-26T04:13:48.190Z,3.90
2018-04-26T04:16:16.420Z,3.90
2018-04-26T04:18:44.718Z,3.70
2018-04-26T04:21:12.213Z,4.27
2018-04-26T04:23:39.752Z,4.13
2018-04-26T04:26:07.248Z,4.17
2018-04-26T04:28:34.781Z,3.80
2018-04-26T04:31:02.867Z,4.10
2018-04-26T04:33:30.373Z,4.50
2018-04-26T04:35:58.708Z,4.53
2018-04-26T04:38:26.249Z,4.63
2018-04-26T04:40:53.754Z,5.00
2018-04-26T04:43:21.281Z,5.00
2018-04-26T04:45:48.790Z,5.37
2018-04-26T04:48:17.070Z,4.97
2018-04-26T04:50:45.351Z,5.03
2018-04-26T04:53:12.861Z,4.63
2018-04-26T04:55:40.413Z,4.97
2018-04-26T04:58:07.918Z,5.40
2018-04-26T05:00:36.224Z,5.07
2018-04-26T05:03:03.739Z,4.90
2018-04-26T05:05:32.033Z,5.10
2018-04-26T05:08:00.361Z,4.33
2018-04-26T05:10:27.893Z,4.70
2018-04-26T05:12:55.408Z,4.70
2018-04-26T05:15:23.679Z,4.90
2018-04-26T05:17:51.188Z,4.73
2018-04-26T05:20:18.718Z,5.20
2018-04-26T05:22:47.000Z,4.90
2018-04-26T05:25:15.269Z,5.20
2018-04-26T05:27:43.567Z,4.80
2018-04-26T05:30:11.116Z,6.10
2018-04-26T05:32:38.649Z,4.87
2018-04-26T05:35:06.159Z,5.10
2018-04-26T05:37:34.467Z,4.87
2018-04-26T05:40:02.042Z,4.53
2018-04-26T05:42:29.566Z,4.50
2018-04-26T05:44:57.103Z,4.00
2018-04-26T05:47:24.699Z,3.80
2018-04-26T05:49:52.122Z,4.40
2018-04-26T05:52:19.662Z,3.80
2018-04-26T05:54:48.052Z,3.60
2018-04-26T05:57:15.572Z,4.53
2018-04-26T05:59:43.075Z,3.87
2018-04-26T06:02:10.596Z,4.07
2018-04-26T06:04:38.903Z,3.67
2018-04-26T06:07:06.398Z,3.60
2018-04-26T06:09:33.927Z,4.13
2018-04-26T06:12:01.424Z,3.57
2018-04-26T06:14:28.946Z,3.40
2018-04-26T06:16:56.551Z,3.30
2018-04-26T06:19:24.027Z,3.10
2018-04-26T06:21:51.513Z,4.20
2018-04-26T06:24:19.044Z,3.27
2018-04-26T06:26:47.305Z,3.40
2018-04-26T06:29:14.832Z,3.93
2018-04-26T06:31:42.366Z,3.67
2018-04-26T06:34:09.875Z,3.80
2018-04-26T06:36:37.398Z,3.67
2018-04-26T06:39:04.897Z,3.47
2018-04-26T06:41:32.420Z,3.67
2018-04-26T06:43:59.935Z,3.90
2018-04-26T06:46:28.274Z,4.20
2018-04-26T06:48:55.770Z,4.70
2018-04-26T06:51:24.068Z,4.40
2018-04-26T06:53:51.577Z,3.20
2018-04-26T06:56:19.103Z,4.30
2018-04-26T06:58:46.630Z,3.70
2018-04-26T07:01:14.993Z,3.70
2018-04-26T07:03:42.542Z,3.17
2018-04-26T07:06:10.034Z,3.13
2018-04-26T07:08:38.326Z,2.70
2018-04-26T07:11:05.829Z,3.27
2018-04-26T07:13:33.358Z,3.03
2018-04-26T07:16:00.903Z,2.60
2018-04-26T07:18:28.425Z,3.20
2018-04-26T07:20:56.042Z,3.33
2018-04-26T07:23:23.546Z,2.77
2018-04-26T07:25:51.822Z,3.10
2018-04-26T07:28:20.130Z,3.27
2018-04-26T07:30:47.638Z,2.80
2018-04-26T07:33:15.164Z,3.03
2018-04-26T07:35:42.702Z,3.07
2018-04-26T07:38:10.213Z,2.80
2018-04-26T07:40:37.702Z,3.00
2018-04-26T07:43:06.006Z,2.50
2018-04-26T07:45:33.561Z,2.50
2018-04-26T07:48:01.072Z,2.60
2018-04-26T07:50:28.609Z,2.83
2018-04-26T07:52:56.113Z,3.20
2018-04-26T07:55:24.413Z,4.30
2018-04-26T07:57:51.923Z,2.80
2018-04-26T08:00:19.491Z,2.80
2018-04-26T08:02:47.013Z,3.27
2018-04-26T08:05:15.456Z,3.00
2018-04-26T08:07:42.990Z,3.10
2018-04-26T08:10:10.497Z,2.57
2018-04-26T08:12:38.028Z,2.80
2018-04-26T08:15:06.330Z,2.47
2018-04-26T08:17:33.843Z,2.73
2018-04-26T08:20:02.164Z,2.80
2018-04-26T08:22:29.682Z,3.07
2018-04-26T08:24:58.053Z,3.20
2018-04-26T08:27:25.537Z,3.40
2018-04-26T08:29:53.829Z,2.73
2018-04-26T08:32:21.346Z,3.00
2018-04-26T08:34:48.898Z,3.00
2018-04-26T08:37:16.408Z,3.20
2018-04-26T08:39:43.931Z,2.90
2018-04-26T08:42:12.232Z,2.73
2018-04-26T08:44:39.732Z,3.10
2018-04-26T08:47:07.285Z,2.90
2018-04-26T08:49:34.789Z,2.50
2018-04-26T08:52:03.205Z,2.27
2018-04-26T08:54:31.496Z,2.90
2018-04-26T08:56:58.997Z,2.50
2018-04-26T08:59:26.514Z,3.33
2018-04-26T09:01:54.068Z,3.20
2018-04-26T09:04:21.597Z,3.20
2018-04-26T09:06:49.118Z,3.17
2018-04-26T09:09:16.631Z,2.40
2018-04-26T09:11:44.155Z,2.60
2018-04-26T09:14:12.449Z,3.33
2018-04-26T09:16:39.949Z,3.37
2018-04-26T09:19:07.493Z,2.40
2018-04-26T09:21:35.028Z,3.00
2018-04-26T09:24:02.560Z,2.40
2018-04-26T09:26:30.852Z,2.33
2018-04-26T09:28:58.395Z,2.47
2018-04-26T09:31:25.922Z,2.33
2018-04-26T09:33:53.413Z,2.17
2018-04-26T09:36:21.726Z,2.40
2018-04-26T09:38:49.229Z,3.03
2018-04-26T09:41:16.766Z,2.57
2018-04-26T09:43:44.265Z,2.47
2018-04-26T09:46:11.759Z,2.47
2018-04-26T09:48:39.331Z,2.23
2018-04-26T09:51:06.824Z,3.37
2018-04-26T09:53:34.376Z,2.60
2018-04-26T09:56:01.889Z,2.60
2018-04-26T09:58:29.443Z,2.53
2018-04-26T10:00:57.386Z,2.70
2018-04-26T10:03:27.862Z,2.37
2018-04-26T10:05:58.495Z,2.20
2018-04-26T10:08:26.689Z,3.23
2018-04-26T10:10:54.288Z,2.40
2018-04-26T10:13:22.574Z,2.53
2018-04-26T10:15:50.113Z,2.37
2018-04-26T10:18:17.620Z,2.27
2018-04-26T10:20:45.153Z,1.93
2018-04-26T10:23:13.424Z,2.30
2018-04-26T10:25:40.972Z,1.80
2018-04-26T10:28:09.265Z,1.87
2018-04-26T10:30:37.566Z,1.40
2018-04-26T10:33:05.103Z,1.80
2018-04-26T10:35:32.618Z,1.90
2018-04-26T10:38:00.191Z,1.70
2018-04-26T10:40:27.706Z,2.00
2018-04-26T10:42:55.204Z,1.77
2018-04-26T10:45:22.752Z,8.97
2018-04-26T10:47:50.348Z,2.47
2018-04-26T10:50:18.666Z,2.20
2018-04-26T10:52:46.160Z,1.40
2018-04-26T10:55:13.692Z,1.63
2018-04-26T10:57:41.213Z,1.53
2018-04-26T11:00:08.795Z,1.60
2018-04-26T11:02:36.275Z,1.83
2018-04-26T11:05:03.814Z,1.90
2018-04-26T11:07:31.320Z,1.87
2018-04-26T11:09:58.848Z,1.60
2018-04-26T11:12:26.379Z,1.30
2018-04-26T11:14:53.961Z,1.97
2018-04-26T11:17:21.765Z,1.60
2018-04-26T11:19:50.041Z,1.70
2018-04-26T11:22:18.345Z,1.20
2018-04-26T11:24:45.858Z,1.20
2018-04-26T11:27:13.394Z,1.13
2018-04-26T11:29:40.902Z,1.40
2018-04-26T11:32:09.214Z,1.70
2018-04-26T11:34:36.760Z,1.17
2018-04-26T11:37:04.286Z,1.57
2018-04-26T11:39:31.814Z,1.20
2018-04-26T11:41:59.546Z,1.33
2018-04-26T11:44:27.054Z,1.07
2018-04-26T11:46:54.591Z,1.40
2018-04-26T11:49:22.096Z,1.20
2018-04-26T11:51:50.374Z,1.20
2018-04-26T11:54:18.669Z,1.20
2018-04-26T11:56:46.153Z,1.07
2018-04-26T11:59:13.672Z,1.20
2018-04-26T12:01:41.936Z,1.50
2018-04-26T12:04:10.249Z,1.07
2018-04-26T12:06:38.148Z,0.90
2018-04-26T12:09:06.542Z,1.20
2018-04-26T12:11:34.081Z,1.50
2018-04-26T12:14:01.642Z,1.20
2018-04-26T12:16:29.176Z,0.97
2018-04-26T12:18:56.669Z,1.27
2018-04-26T12:21:24.186Z,1.20
2018-04-26T12:23:51.707Z,1.60
2018-04-26T12:26:19.244Z,1.10
2018-04-26T12:28:46.753Z,1.00
2018-04-26T12:31:15.052Z,1.00
2018-04-26T12:33:42.589Z,1.07
2018-04-26T12:36:10.848Z,1.10
2018-04-26T12:38:39.269Z,1.40
2018-04-26T12:41:06.834Z,1.23
2018-04-26T12:43:34.364Z,1.00
2018-04-26T12:46:01.960Z,1.10
2018-04-26T12:48:29.517Z,1.53
2018-04-26T12:50:57.045Z,1.70
2018-04-26T12:53:24.578Z,1.20
2018-04-26T12:55:52.937Z,1.30
2018-04-26T12:58:20.450Z,0.90
2018-04-26T13:00:47.975Z,5.97
2018-04-26T13:03:16.236Z,1.67
2018-04-26T13:05:43.789Z,1.50
2018-04-26T13:08:11.304Z,1.90
2018-04-26T13:10:38.856Z,1.20
2018-04-26T13:13:06.406Z,1.27
2018-04-26T13:15:33.913Z,1.43
2018-04-26T13:18:01.458Z,1.70
2018-04-26T13:20:28.966Z,2.10
2018-04-26T13:22:57.242Z,1.30
2018-04-26T13:25:25.566Z,1.63
2018-04-26T13:27:53.082Z,1.33
2018-04-26T13:30:21.366Z,1.50
2018-04-26T13:32:49.665Z,0.93
2018-04-26T13:35:17.193Z,1.40
2018-04-26T13:37:45.490Z,1.27
2018-04-26T13:40:12.979Z,1.10
2018-04-26T13:42:40.515Z,1.20
2018-04-26T13:45:08.052Z,1.43
2018-04-26T13:47:36.346Z,1.47
2018-04-26T13:50:03.912Z,1.40
2018-04-26T13:52:31.435Z,1.43
2018-04-26T13:54:59.742Z,1.20
2018-04-26T13:57:27.299Z,1.00
2018-04-26T13:59:54.794Z,1.10
2018-04-26T14:02:22.305Z,1.10
2018-04-26T14:04:50.622Z,1.47
2018-04-26T14:07:18.118Z,1.77
2018-04-26T14:09:46.426Z,1.20
2018-04-26T14:12:13.970Z,1.40
2018-04-26T14:14:42.254Z,1.10
2018-04-26T14:17:09.750Z,0.90
2018-04-26T14:19:37.265Z,2.00
2018-04-26T14:22:05.525Z,1.27
2018-04-26T14:24:33.074Z,0.83
2018-04-26T14:27:00.595Z,1.20
2018-04-26T14:29:28.177Z,1.93
2018-04-26T14:31:56.409Z,1.00
2018-04-26T14:34:23.937Z,1.27
2018-04-26T14:36:52.201Z,0.97
2018-04-26T14:39:19.753Z,1.10
2018-04-26T14:41:47.272Z,1.10
2018-04-26T14:44:14.813Z,1.10
2018-04-26T14:46:42.334Z,1.27
2018-04-26T14:49:09.848Z,1.20
2018-04-26T14:51:37.376Z,2.43
2018-04-26T14:54:05.646Z,1.27
2018-04-26T14:56:33.945Z,1.00
2018-04-26T14:59:01.462Z,1.47
2018-04-26T15:01:29.194Z,0.87
2018-04-26T15:03:56.719Z,1.00
2018-04-26T15:06:25.015Z,1.17
2018-04-26T15:08:52.538Z,1.20
2018-04-26T15:11:20.919Z,1.57
2018-04-26T15:13:49.627Z,1.30
2018-04-26T15:16:17.379Z,1.83
2018-04-26T15:18:44.925Z,7.30
2018-04-26T15:21:12.530Z,16.03
2018-04-26T15:23:40.068Z,1.40
2018-04-26T15:26:07.567Z,1.00
2018-04-26T15:28:35.070Z,0.90
2018-04-26T15:31:03.365Z,1.27
2018-04-26T15:33:30.898Z,1.90
2018-04-26T15:35:59.173Z,1.17
2018-04-26T15:38:27.454Z,1.27
2018-04-26T15:40:55.707Z,2.10
2018-04-26T15:43:23.272Z,1.17
2018-04-26T15:45:50.893Z,0.83
2018-04-26T15:48:18.423Z,1.20
2018-04-26T15:50:52.943Z,1.27
2018-04-26T15:53:33.193Z,1.27
2018-04-26T15:56:12.667Z,1.30
2018-04-26T15:59:04.005Z,1.10
2018-04-26T16:05:15.189Z,0.90
2018-04-26T16:08:00.447Z,1.10
2018-04-26T16:10:45.688Z,0.90
2018-04-26T16:13:31.578Z,1.10
2018-04-26T16:16:15.808Z,1.30
2018-04-26T16:18:55.300Z,1.27
2018-04-26T16:21:34.706Z,1.27
2018-04-26T16:24:19.933Z,1.30
2018-04-26T16:27:05.097Z,1.23
2018-04-26T16:29:44.381Z,0.90
2018-04-26T16:32:29.575Z,1.03
2018-04-26T16:35:14.494Z,1.17
2018-04-26T16:37:59.902Z,1.10
2018-04-26T16:40:28.164Z,1.30
2018-04-26T16:42:55.724Z,1.13
2018-04-26T16:45:23.208Z,1.37
2018-04-26T16:47:51.493Z,1.10
2018-04-26T16:50:19.848Z,1.27
2018-04-26T16:52:48.148Z,1.20
2018-04-26T16:55:16.410Z,1.07
2018-04-26T16:57:43.941Z,1.20
2018-04-26T17:00:11.424Z,1.23
2018-04-26T17:02:39.878Z,1.40
2018-04-26T17:05:07.445Z,1.30
2018-04-26T17:07:34.944Z,1.30
2018-04-26T17:10:03.307Z,1.40
2018-04-26T17:12:31.222Z,1.50
2018-04-26T17:15:00.092Z,1.30
2018-04-26T17:17:27.653Z,1.43
2018-04-26T17:19:55.201Z,1.20
2018-04-26T17:22:24.844Z,1.20
2018-04-26T17:24:55.187Z,1.43
2018-04-26T17:27:22.937Z,1.27
2018-04-26T17:29:50.482Z,1.93
2018-04-26T17:32:18.063Z,1.13
2018-04-26T17:34:45.829Z,1.80
2018-04-26T17:37:13.406Z,1.43
2018-04-26T17:39:40.926Z,1.73
2018-04-26T17:42:08.487Z,1.20
2018-04-26T17:44:36.065Z,1.20
2018-04-26T17:47:03.623Z,1.67
2018-04-26T17:49:31.236Z,2.03
2018-04-26T17:51:58.793Z,2.30
2018-04-26T17:54:27.055Z,1.80
2018-04-26T17:56:55.354Z,1.73
2018-04-26T17:59:22.876Z,1.70
2018-04-26T18:01:50.520Z,1.47
2018-04-26T18:04:18.436Z,1.77
2018-04-26T18:06:46.341Z,1.20
2018-04-26T18:09:13.950Z,1.57
2018-04-26T18:11:42.244Z,2.13
2018-04-26T18:14:09.979Z,1.83
2018-04-26T18:16:37.509Z,1.60
2018-04-26T18:19:06.263Z,1.43
2018-04-26T18:21:33.937Z,1.70
2018-04-26T18:24:01.611Z,1.40
2018-04-26T18:26:29.155Z,1.40
2018-04-26T18:28:56.687Z,1.80
2018-04-26T18:31:24.991Z,1.80
2018-04-26T18:33:52.660Z,1.70
2018-04-26T18:36:20.226Z,1.60
2018-04-26T18:38:47.791Z,1.40
2018-04-26T18:41:16.123Z,1.60
2018-04-26T18:43:44.540Z,2.00
2018-04-26T18:46:12.153Z,1.83
2018-04-26T18:48:40.509Z,2.00
2018-04-26T18:51:08.146Z,2.00
2018-04-26T18:53:35.681Z,1.80
2018-04-26T18:56:03.709Z,1.80
2018-04-26T18:58:32.434Z,1.73
2018-04-26T19:01:00.129Z,1.67
2018-04-26T19:03:27.688Z,2.80
2018-04-26T19:05:55.334Z,2.00
2018-04-26T19:08:23.355Z,2.30
2018-04-26T19:10:51.058Z,2.13
2018-04-26T19:13:18.792Z,2.13
2018-04-26T19:15:46.455Z,2.10
2018-04-26T19:18:14.737Z,2.73
2018-04-26T19:20:43.015Z,2.23
2018-04-26T19:23:10.889Z,2.27
2018-04-26T19:25:38.726Z,2.30
2018-04-26T19:28:06.579Z,2.23
2018-04-26T19:30:35.351Z,2.70
2018-04-26T19:33:03.625Z,5.30
2018-04-26T19:35:31.620Z,10.10
2018-04-26T19:37:59.537Z,4.80
2018-04-26T19:40:27.347Z,2.63
2018-04-26T19:42:55.494Z,2.90
2018-04-26T19:45:24.401Z,3.10
2018-04-26T19:47:52.462Z,2.53
2018-04-26T19:50:21.151Z,2.40
2018-04-26T19:52:49.040Z,2.30
2018-04-26T19:55:16.900Z,2.60
2018-04-26T19:57:44.772Z,2.50
2018-04-26T20:00:12.801Z,2.47
2018-04-26T20:02:40.689Z,2.50
2018-04-26T20:05:09.302Z,2.60
2018-04-26T20:07:37.110Z,2.53
2018-04-26T20:10:05.006Z,2.67
2018-04-26T20:12:33.807Z,2.87
2018-04-26T20:15:03.073Z,2.83
2018-04-26T20:17:31.172Z,2.30
2018-04-26T20:19:59.047Z,2.30
2018-04-26T20:22:26.897Z,2.57
2018-04-26T20:24:55.504Z,3.00
2018-04-26T20:27:23.735Z,3.27
2018-04-26T20:29:51.613Z,2.97
2018-04-26T20:32:19.595Z,2.93
2018-04-26T20:34:47.773Z,3.20
2018-04-26T20:37:15.619Z,5.07
2018-04-26T20:39:43.448Z,4.80
2018-04-26T20:42:11.354Z,4.80
2018-04-26T20:44:48.235Z,3.87
2018-04-26T20:47:16.119Z,3.57
2018-04-26T20:49:44.745Z,3.37
2018-04-26T20:52:12.593Z,3.23
2018-04-26T20:54:40.493Z,3.10
2018-04-26T20:57:08.637Z,3.27
2018-04-26T20:59:36.478Z,4.20
2018-04-26T21:02:04.985Z,3.20
2018-04-26T21:04:32.643Z,3.07
2018-04-26T21:07:00.324Z,2.87
2018-04-26T21:09:28.100Z,3.77
2018-04-26T21:11:55.742Z,3.67
2018-04-26T21:14:23.264Z,3.37
2018-04-26T21:16:50.868Z,3.30
2018-04-26T21:19:19.409Z,3.57
2018-04-26T21:21:47.067Z,3.70
2018-04-26T21:24:14.635Z,3.80
2018-04-26T21:26:42.170Z,3.60
2018-04-26T21:29:09.951Z,3.67
2018-04-26T21:31:37.679Z,4.00
2018-04-26T21:34:05.263Z,3.40
2018-04-26T21:36:32.804Z,3.90
2018-04-26T21:39:00.399Z,4.23
2018-04-26T21:41:27.958Z,13.13
2018-04-26T21:43:55.509Z,5.83
2018-04-26T21:46:23.098Z,7.37
2018-04-26T21:48:50.639Z,4.33
2018-04-26T21:51:23.883Z,3.60
2018-04-26T21:53:57.091Z,3.93
2018-04-26T21:56:30.275Z,4.30
2018-04-26T21:59:03.456Z,3.90
2018-04-26T22:01:36.836Z,5.07
2018-04-26T22:07:04.713Z,3.57
2018-04-26T22:09:33.027Z,3.83
2018-04-26T22:12:00.603Z,4.20
2018-04-26T22:14:28.150Z,4.13
2018-04-26T22:16:55.710Z,4.23
2018-04-26T22:19:23.266Z,3.60
2018-04-26T22:21:50.814Z,3.93
2018-04-26T22:24:18.376Z,3.23
2018-04-26T22:26:45.949Z,3.73
2018-04-26T22:29:13.478Z,3.43
2018-04-26T22:31:41.844Z,3.40
2018-04-26T22:34:09.394Z,3.53
2018-04-26T22:36:36.947Z,3.80
2018-04-26T22:39:04.474Z,3.73
2018-04-26T22:41:32.792Z,4.07
2018-04-26T22:44:01.097Z,4.20
2018-04-26T22:46:28.638Z,6.50
2018-04-26T22:48:56.974Z,3.77
2018-04-26T22:51:24.518Z,3.67
2018-04-26T22:53:52.098Z,3.70
2018-04-26T22:56:19.646Z,3.80
2018-04-26T22:58:47.236Z,3.97
2018-04-26T23:01:14.805Z,3.30
2018-04-26T23:03:42.382Z,3.77
2018-04-26T23:06:10.690Z,4.30
2018-04-26T23:08:38.267Z,3.90
2018-04-26T23:11:05.790Z,3.10
2018-04-26T23:13:33.351Z,3.93
2018-04-26T23:16:01.636Z,4.13
2018-04-26T23:18:29.188Z,4.03
2018-04-26T23:20:56.736Z,4.00
2018-04-26T23:23:25.062Z,3.87
2018-04-26T23:25:52.598Z,4.47
2018-04-26T23:28:20.158Z,3.87
2018-04-26T23:30:47.703Z,3.80
2018-04-26T23:33:15.243Z,3.97
2018-04-26T23:35:42.798Z,4.30
2018-04-26T23:38:10.329Z,4.07
2018-04-26T23:40:37.879Z,4.07
2018-04-26T23:43:05.443Z,4.47
2018-04-26T23:45:32.999Z,3.93
2018-04-26T23:48:00.594Z,3.97
2018-04-26T23:50:28.133Z,4.50
2018-04-26T23:52:55.685Z,4.30
2018-04-26T23:55:23.250Z,4.07
2018-04-26T23:57:50.815Z,4.00
